sensor_id;sensor_type;location;lat;lon;timestamp;pressure;altitude;pressure_sealevel;temperature;humidity
84944;BME280;75231;53.650;9.788;2024-03-08T00:01:25;102609.84;;;2.31;84.27
84944;BME280;75231;53.650;9.788;2024-03-08T00:03:50;102594.53;;;2.23;84.35
84944;BME280;75231;53.650;9.788;2024-03-08T00:06:17;102604.75;;;2.17;84.29
84944;BME280;75231;53.650;9.788;2024-03-08T00:08:42;102608.13;;;2.16;84.95
84944;BME280;75231;53.650;9.788;2024-03-08T00:11:07;102600.50;;;2.21;84.91
84944;BME280;75231;53.650;9.788;2024-03-08T00:13:33;102598.78;;;2.12;84.76
84944;BME280;75231;53.650;9.788;2024-03-08T00:15:59;102593.66;;;2.08;84.56
84944;BME280;75231;53.650;9.788;2024-03-08T00:18:24;102602.19;;;2.13;84.62
84944;BME280;75231;53.650;9.788;2024-03-08T00:20:50;102597.09;;;2.10;84.64
84944;BME280;75231;53.650;9.788;2024-03-08T00:23:16;102589.44;;;2.10;84.66
84944;BME280;75231;53.650;9.788;2024-03-08T00:25:41;102592.81;;;2.04;84.94
84944;BME280;75231;53.650;9.788;2024-03-08T00:28:06;102592.78;;;2.00;84.92
84944;BME280;75231;53.650;9.788;2024-03-08T00:30:32;102595.34;;;1.96;84.99
84944;BME280;75231;53.650;9.788;2024-03-08T00:32:57;102598.78;;;2.02;85.06
84944;BME280;75231;53.650;9.788;2024-03-08T00:35:22;102591.06;;;1.92;85.29
84944;BME280;75231;53.650;9.788;2024-03-08T00:37:48;102591.91;;;1.88;84.96
84944;BME280;75231;53.650;9.788;2024-03-08T00:40:13;102595.31;;;1.90;85.32
84944;BME280;75231;53.650;9.788;2024-03-08T00:42:39;102587.66;;;1.81;85.54
84944;BME280;75231;53.650;9.788;2024-03-08T00:45:06;102593.59;;;1.80;85.57
84944;BME280;75231;53.650;9.788;2024-03-08T00:47:31;102585.06;;;1.69;85.06
84944;BME280;75231;53.650;9.788;2024-03-08T00:49:57;102596.06;;;1.53;85.15
84944;BME280;75231;53.650;9.788;2024-03-08T00:52:22;102590.09;;;1.49;85.50
84944;BME280;75231;53.650;9.788;2024-03-08T00:54:49;102591.78;;;1.46;85.90
84944;BME280;75231;53.650;9.788;2024-03-08T00:57:14;102583.25;;;1.40;86.74
84944;BME280;75231;53.650;9.788;2024-03-08T00:59:39;102588.38;;;1.48;86.39
84944;BME280;75231;53.650;9.788;2024-03-08T01:02:05;102580.72;;;1.50;86.38
84944;BME280;75231;53.650;9.788;2024-03-08T01:04:31;102583.28;;;1.50;86.41
84944;BME280;75231;53.650;9.788;2024-03-08T01:06:57;102575.63;;;1.47;85.99
84944;BME280;75231;53.650;9.788;2024-03-08T01:09:23;102579.00;;;1.39;86.20
84944;BME280;75231;53.650;9.788;2024-03-08T01:11:49;102573.03;;;1.34;86.42
84944;BME280;75231;53.650;9.788;2024-03-08T01:14:15;102567.91;;;1.34;86.59
84944;BME280;75231;53.650;9.788;2024-03-08T01:16:40;102568.81;;;1.41;87.04
84944;BME280;75231;53.650;9.788;2024-03-08T01:19:06;102562.00;;;1.40;86.82
84944;BME280;75231;53.650;9.788;2024-03-08T01:21:31;102562.00;;;1.38;86.58
84944;BME280;75231;53.650;9.788;2024-03-08T01:23:56;102553.47;;;1.35;86.56
84944;BME280;75231;53.650;9.788;2024-03-08T01:26:22;102550.09;;;1.37;86.53
84944;BME280;75231;53.650;9.788;2024-03-08T01:28:48;102541.59;;;1.38;86.64
84944;BME280;75231;53.650;9.788;2024-03-08T01:31:13;102530.56;;;1.36;86.80
84944;BME280;75231;53.650;9.788;2024-03-08T01:33:39;102537.34;;;1.40;86.48
84944;BME280;75231;53.650;9.788;2024-03-08T01:36:05;102538.22;;;1.49;86.97
84944;BME280;75231;53.650;9.788;2024-03-08T01:38:30;102527.22;;;1.53;86.57
84944;BME280;75231;53.650;9.788;2024-03-08T01:40:56;102522.94;;;1.52;85.96
84944;BME280;75231;53.650;9.788;2024-03-08T01:43:25;102522.94;;;1.49;86.78
84944;BME280;75231;53.650;9.788;2024-03-08T01:45:52;102507.59;;;1.44;85.94
84944;BME280;75231;53.650;9.788;2024-03-08T01:48:18;102511.00;;;1.43;86.40
84944;BME280;75231;53.650;9.788;2024-03-08T01:50:44;102512.72;;;1.44;86.86
84944;BME280;75231;53.650;9.788;2024-03-08T01:53:10;102513.56;;;1.42;86.55
84944;BME280;75231;53.650;9.788;2024-03-08T01:55:37;102499.94;;;1.33;86.60
84944;BME280;75231;53.650;9.788;2024-03-08T01:58:05;102504.19;;;1.36;86.94
84944;BME280;75231;53.650;9.788;2024-03-08T02:00:31;102499.94;;;1.35;87.04
84944;BME280;75231;53.650;9.788;2024-03-08T02:02:58;102507.63;;;1.41;86.75
84944;BME280;75231;53.650;9.788;2024-03-08T02:05:23;102493.13;;;1.35;86.31
84944;BME280;75231;53.650;9.788;2024-03-08T02:07:49;102502.50;;;1.32;87.39
84944;BME280;75231;53.650;9.788;2024-03-08T02:10:14;102480.38;;;1.26;87.16
84944;BME280;75231;53.650;9.788;2024-03-08T02:12:40;102487.19;;;1.35;87.12
84944;BME280;75231;53.650;9.788;2024-03-08T02:15:06;102486.38;;;1.37;86.92
84944;BME280;75231;53.650;9.788;2024-03-08T02:17:32;102485.53;;;1.38;86.51
84944;BME280;75231;53.650;9.788;2024-03-08T02:19:58;102491.44;;;1.34;86.79
84944;BME280;75231;53.650;9.788;2024-03-08T02:22:26;102488.00;;;1.26;87.13
84944;BME280;75231;53.650;9.788;2024-03-08T02:24:52;102492.25;;;1.27;87.45
84944;BME280;75231;53.650;9.788;2024-03-08T02:27:23;102497.38;;;1.35;86.92
84944;BME280;75231;53.650;9.788;2024-03-08T02:29:49;102493.16;;;1.29;86.76
84944;BME280;75231;53.650;9.788;2024-03-08T02:32:14;102489.72;;;1.27;86.98
84944;BME280;75231;53.650;9.788;2024-03-08T02:34:40;102477.78;;;1.17;87.14
84944;BME280;75231;53.650;9.788;2024-03-08T02:37:06;102482.03;;;1.14;87.14
84944;BME280;75231;53.650;9.788;2024-03-08T02:39:31;102476.09;;;1.13;86.95
84944;BME280;75231;53.650;9.788;2024-03-08T02:41:57;102485.41;;;1.09;87.60
84944;BME280;75231;53.650;9.788;2024-03-08T02:44:22;102485.38;;;1.02;87.40
84944;BME280;75231;53.650;9.788;2024-03-08T02:46:48;102475.22;;;1.05;87.41
84944;BME280;75231;53.650;9.788;2024-03-08T02:49:13;102474.31;;;1.00;87.28
84944;BME280;75231;53.650;9.788;2024-03-08T02:51:38;102473.44;;;0.95;87.40
84944;BME280;75231;53.650;9.788;2024-03-08T02:54:04;102469.19;;;0.91;87.91
84944;BME280;75231;53.650;9.788;2024-03-08T02:56:29;102469.22;;;0.97;87.67
84944;BME280;75231;53.650;9.788;2024-03-08T02:58:55;102466.69;;;0.97;87.40
84944;BME280;75231;53.650;9.788;2024-03-08T03:01:20;102452.22;;;0.90;87.66
84944;BME280;75231;53.650;9.788;2024-03-08T03:03:45;102464.09;;;0.94;87.77
84944;BME280;75231;53.650;9.788;2024-03-08T03:06:12;102477.69;;;0.93;87.34
84944;BME280;75231;53.650;9.788;2024-03-08T03:08:37;102468.31;;;0.84;87.80
84944;BME280;75231;53.650;9.788;2024-03-08T03:11:03;102458.97;;;0.81;87.94
84944;BME280;75231;53.650;9.788;2024-03-08T03:13:29;102455.59;;;0.89;87.89
84944;BME280;75231;53.650;9.788;2024-03-08T03:15:54;102464.09;;;0.91;88.55
84944;BME280;75231;53.650;9.788;2024-03-08T03:18:23;102458.13;;;0.84;87.85
84944;BME280;75231;53.650;9.788;2024-03-08T03:20:48;102457.31;;;0.91;87.74
84944;BME280;75231;53.650;9.788;2024-03-08T03:23:14;102458.13;;;0.84;87.73
84944;BME280;75231;53.650;9.788;2024-03-08T03:25:39;102460.63;;;0.79;87.45
84944;BME280;75231;53.650;9.788;2024-03-08T03:28:06;102442.75;;;0.67;88.56
84944;BME280;75231;53.650;9.788;2024-03-08T03:30:32;102457.28;;;0.80;88.32
84944;BME280;75231;53.650;9.788;2024-03-08T03:32:59;102454.69;;;0.79;88.30
84944;BME280;75231;53.650;9.788;2024-03-08T03:35:26;102452.16;;;0.77;88.47
84944;BME280;75231;53.650;9.788;2024-03-08T03:37:51;102445.31;;;0.70;88.40
84944;BME280;75231;53.650;9.788;2024-03-08T03:40:28;102449.56;;;0.71;88.41
84944;BME280;75231;53.650;9.788;2024-03-08T03:42:54;102445.28;;;0.64;88.51
84944;BME280;75231;53.650;9.788;2024-03-08T03:45:19;102452.09;;;0.68;88.37
84944;BME280;75231;53.650;9.788;2024-03-08T03:47:45;102448.66;;;0.63;88.33
84944;BME280;75231;53.650;9.788;2024-03-08T03:50:10;102450.31;;;0.55;88.19
84944;BME280;75231;53.650;9.788;2024-03-08T03:52:36;102451.16;;;0.52;88.85
84944;BME280;75231;53.650;9.788;2024-03-08T03:55:01;102439.31;;;0.59;88.71
84944;BME280;75231;53.650;9.788;2024-03-08T03:57:26;102447.84;;;0.67;88.45
84944;BME280;75231;53.650;9.788;2024-03-08T03:59:52;102450.38;;;0.64;88.84
84944;BME280;75231;53.650;9.788;2024-03-08T04:02:17;102441.88;;;0.61;88.93
84944;BME280;75231;53.650;9.788;2024-03-08T04:04:43;102446.97;;;0.59;88.77
84944;BME280;75231;53.650;9.788;2024-03-08T04:07:10;102452.91;;;0.64;88.88
84944;BME280;75231;53.650;9.788;2024-03-08T04:09:36;102449.50;;;0.59;88.59
84944;BME280;75231;53.650;9.788;2024-03-08T04:12:01;102446.91;;;0.54;89.83
84944;BME280;75231;53.650;9.788;2024-03-08T04:14:26;102441.06;;;0.65;88.84
84944;BME280;75231;53.650;9.788;2024-03-08T04:16:52;102441.88;;;0.62;88.73
84944;BME280;75231;53.650;9.788;2024-03-08T04:19:17;102452.88;;;0.53;89.27
84944;BME280;75231;53.650;9.788;2024-03-08T04:21:44;102442.72;;;0.58;88.90
84944;BME280;75231;53.650;9.788;2024-03-08T04:24:09;102440.97;;;0.54;88.85
84944;BME280;75231;53.650;9.788;2024-03-08T04:26:34;102435.03;;;0.49;89.47
84944;BME280;75231;53.650;9.788;2024-03-08T04:29:00;102434.19;;;0.53;88.92
84944;BME280;75231;53.650;9.788;2024-03-08T04:31:25;102429.06;;;0.47;89.63
84944;BME280;75231;53.650;9.788;2024-03-08T04:33:52;102429.06;;;0.47;89.41
84944;BME280;75231;53.650;9.788;2024-03-08T04:36:17;102427.41;;;0.50;89.16
84944;BME280;75231;53.650;9.788;2024-03-08T04:38:42;102424.91;;;0.58;89.00
84944;BME280;75231;53.650;9.788;2024-03-08T04:41:08;102415.47;;;0.46;89.39
84944;BME280;75231;53.650;9.788;2024-03-08T04:43:34;102424.00;;;0.54;89.59
84944;BME280;75231;53.650;9.788;2024-03-08T04:45:59;102418.06;;;0.52;89.13
84944;BME280;75231;53.650;9.788;2024-03-08T04:48:25;102421.47;;;0.56;88.92
84944;BME280;75231;53.650;9.788;2024-03-08T04:50:52;102415.47;;;0.43;88.99
84944;BME280;75231;53.650;9.788;2024-03-08T04:53:19;102409.53;;;0.44;89.78
84944;BME280;75231;53.650;9.788;2024-03-08T04:55:44;102414.66;;;0.50;89.23
84944;BME280;75231;53.650;9.788;2024-03-08T04:58:09;102414.69;;;0.55;89.42
84944;BME280;75231;53.650;9.788;2024-03-08T05:00:35;102412.97;;;0.51;89.18
84944;BME280;75231;53.650;9.788;2024-03-08T05:03:00;102408.69;;;0.44;89.55
84944;BME280;75231;53.650;9.788;2024-03-08T05:05:25;102402.75;;;0.45;89.25
84944;BME280;75231;53.650;9.788;2024-03-08T05:07:53;102409.59;;;0.53;89.27
84944;BME280;75231;53.650;9.788;2024-03-08T05:10:18;102407.84;;;0.48;89.87
84944;BME280;75231;53.650;9.788;2024-03-08T05:12:44;102400.22;;;0.46;89.27
84944;BME280;75231;53.650;9.788;2024-03-08T05:15:09;102398.50;;;0.42;89.60
84944;BME280;75231;53.650;9.788;2024-03-08T05:17:35;102402.75;;;0.46;89.34
84944;BME280;75231;53.650;9.788;2024-03-08T05:20:00;102392.56;;;0.42;89.47
84944;BME280;75231;53.650;9.788;2024-03-08T05:22:25;102404.44;;;0.44;89.35
84944;BME280;75231;53.650;9.788;2024-03-08T05:24:51;102390.81;;;0.35;89.93
84944;BME280;75231;53.650;9.788;2024-03-08T05:27:17;102398.50;;;0.45;89.32
84944;BME280;75231;53.650;9.788;2024-03-08T05:29:42;102404.50;;;0.49;89.10
84944;BME280;75231;53.650;9.788;2024-03-08T05:32:08;102402.75;;;0.48;88.66
84944;BME280;75231;53.650;9.788;2024-03-08T05:34:34;102408.69;;;0.47;89.28
84944;BME280;75231;53.650;9.788;2024-03-08T05:36:59;102393.38;;;0.38;89.45
84944;BME280;75231;53.650;9.788;2024-03-08T05:39:25;102404.44;;;0.43;89.05
84944;BME280;75231;53.650;9.788;2024-03-08T05:41:50;102401.91;;;0.47;89.20
84944;BME280;75231;53.650;9.788;2024-03-08T05:44:16;102398.50;;;0.47;89.35
84944;BME280;75231;53.650;9.788;2024-03-08T05:47:00;102397.63;;;0.39;89.45
84944;BME280;75231;53.650;9.788;2024-03-08T05:49:25;102390.88;;;0.45;88.93
84944;BME280;75231;53.650;9.788;2024-03-08T05:51:53;102399.34;;;0.47;89.37
84944;BME280;75231;53.650;9.788;2024-03-08T05:54:19;102389.19;;;0.46;88.97
84944;BME280;75231;53.650;9.788;2024-03-08T05:56:47;102385.78;;;0.45;89.29
84944;BME280;75231;53.650;9.788;2024-03-08T05:59:12;102398.53;;;0.50;89.03
84944;BME280;75231;53.650;9.788;2024-03-08T06:01:38;102391.72;;;0.41;89.15
84944;BME280;75231;53.650;9.788;2024-03-08T06:04:05;102399.41;;;0.49;89.12
84944;BME280;75231;53.650;9.788;2024-03-08T06:06:31;102401.09;;;0.50;89.05
84944;BME280;75231;53.650;9.788;2024-03-08T06:08:56;102403.59;;;0.45;88.62
84944;BME280;75231;53.650;9.788;2024-03-08T06:11:22;102407.00;;;0.43;89.20
84944;BME280;75231;53.650;9.788;2024-03-08T06:13:47;102396.81;;;0.44;89.10
84944;BME280;75231;53.650;9.788;2024-03-08T06:16:13;102395.19;;;0.59;88.87
84944;BME280;75231;53.650;9.788;2024-03-08T06:18:38;102396.88;;;0.60;88.50
84944;BME280;75231;53.650;9.788;2024-03-08T06:21:07;102392.66;;;0.63;88.72
84944;BME280;75231;53.650;9.788;2024-03-08T06:23:34;102390.13;;;0.65;88.40
84944;BME280;75231;53.650;9.788;2024-03-08T06:26:09;102395.22;;;0.69;88.00
84944;BME280;75231;53.650;9.788;2024-03-08T06:28:34;102400.31;;;0.71;88.00
84944;BME280;75231;53.650;9.788;2024-03-08T06:31:00;102392.69;;;0.69;88.26
84944;BME280;75231;53.650;9.788;2024-03-08T06:33:26;102403.75;;;0.77;88.08
84944;BME280;75231;53.650;9.788;2024-03-08T06:35:54;102399.50;;;0.79;88.03
84944;BME280;75231;53.650;9.788;2024-03-08T06:38:22;102396.13;;;0.85;87.36
84944;BME280;75231;53.650;9.788;2024-03-08T06:40:48;102396.09;;;0.77;87.96
84944;BME280;75231;53.650;9.788;2024-03-08T06:43:14;102396.09;;;0.77;87.82
84944;BME280;75231;53.650;9.788;2024-03-08T06:45:42;102397.84;;;0.81;87.73
84944;BME280;75231;53.650;9.788;2024-03-08T06:48:13;102391.03;;;0.87;87.50
84944;BME280;75231;53.650;9.788;2024-03-08T06:50:39;102385.97;;;0.93;87.75
84944;BME280;75231;53.650;9.788;2024-03-08T06:53:04;102385.97;;;0.94;87.36
84944;BME280;75231;53.650;9.788;2024-03-08T06:55:29;102386.88;;;1.07;87.42
84944;BME280;75231;53.650;9.788;2024-03-08T06:57:54;102389.41;;;1.04;86.98
84944;BME280;75231;53.650;9.788;2024-03-08T07:00:20;102380.06;;;1.03;87.08
84944;BME280;75231;53.650;9.788;2024-03-08T07:02:46;102387.72;;;1.09;86.66
84944;BME280;75231;53.650;9.788;2024-03-08T07:05:14;102386.84;;;1.02;86.68
84944;BME280;75231;53.650;9.788;2024-03-08T07:07:39;102380.94;;;1.19;86.18
84944;BME280;75231;53.650;9.788;2024-03-08T07:10:06;102390.28;;;1.20;86.29
84944;BME280;75231;53.650;9.788;2024-03-08T07:12:36;102388.59;;;1.20;86.08
84944;BME280;75231;53.650;9.788;2024-03-08T07:15:01;102386.91;;;1.24;85.86
84944;BME280;75231;53.650;9.788;2024-03-08T07:17:26;102385.22;;;1.24;86.07
84944;BME280;75231;53.650;9.788;2024-03-08T07:19:52;102387.75;;;1.24;85.81
84944;BME280;75231;53.650;9.788;2024-03-08T07:22:19;102380.97;;;1.29;86.00
84944;BME280;75231;53.650;9.788;2024-03-08T07:24:44;102380.97;;;1.35;85.38
84944;BME280;75231;53.650;9.788;2024-03-08T07:27:29;102384.41;;;1.47;85.55
84944;BME280;75231;53.650;9.788;2024-03-08T07:29:55;102374.19;;;1.37;85.17
84944;BME280;75231;53.650;9.788;2024-03-08T07:32:21;102378.47;;;1.54;85.02
84944;BME280;75231;53.650;9.788;2024-03-08T07:34:49;102381.84;;;1.57;84.34
84944;BME280;75231;53.650;9.788;2024-03-08T07:37:18;102374.19;;;1.68;84.82
84944;BME280;75231;53.650;9.788;2024-03-08T07:39:45;102368.25;;;1.69;84.33
84944;BME280;75231;53.650;9.788;2024-03-08T07:42:11;102374.19;;;1.80;84.14
84944;BME280;75231;53.650;9.788;2024-03-08T07:44:36;102381.84;;;1.94;83.74
84944;BME280;75231;53.650;9.788;2024-03-08T07:47:02;102375.88;;;1.87;83.30
84944;BME280;75231;53.650;9.788;2024-03-08T07:49:29;102380.13;;;1.94;83.18
84944;BME280;75231;53.650;9.788;2024-03-08T07:51:55;102374.19;;;1.89;83.39
84944;BME280;75231;53.650;9.788;2024-03-08T07:54:20;102377.56;;;1.98;82.86
84944;BME280;75231;53.650;9.788;2024-03-08T07:56:45;102384.38;;;2.02;82.97
84944;BME280;75231;53.650;9.788;2024-03-08T07:59:11;102377.56;;;2.10;82.67
84944;BME280;75231;53.650;9.788;2024-03-08T08:01:37;102384.38;;;2.17;81.80
84944;BME280;75231;53.650;9.788;2024-03-08T08:04:03;102372.44;;;2.16;81.92
84944;BME280;75231;53.650;9.788;2024-03-08T08:06:28;102378.38;;;2.26;81.87
84944;BME280;75231;53.650;9.788;2024-03-08T08:08:57;102373.25;;;2.36;81.52
84944;BME280;75231;53.650;9.788;2024-03-08T08:11:22;102369.78;;;2.52;81.12
84944;BME280;75231;53.650;9.788;2024-03-08T08:13:47;102377.44;;;2.52;80.48
84944;BME280;75231;53.650;9.788;2024-03-08T08:16:13;102365.50;;;2.58;80.41
84944;BME280;75231;53.650;9.788;2024-03-08T08:18:41;102362.91;;;2.68;79.78
84944;BME280;75231;53.650;9.788;2024-03-08T08:21:06;102368.88;;;2.66;79.81
84944;BME280;75231;53.650;9.788;2024-03-08T08:23:32;102369.69;;;2.77;78.93
84944;BME280;75231;53.650;9.788;2024-03-08T08:25:57;102357.69;;;2.87;78.83
84944;BME280;75231;53.650;9.788;2024-03-08T08:28:23;102354.25;;;2.92;78.58
84944;BME280;75231;53.650;9.788;2024-03-08T08:30:49;102344.88;;;2.97;77.80
84944;BME280;75231;53.650;9.788;2024-03-08T08:33:18;102354.19;;;3.06;77.29
84944;BME280;75231;53.650;9.788;2024-03-08T08:35:44;102344.84;;;3.05;77.41
84944;BME280;75231;53.650;9.788;2024-03-08T08:38:10;102349.88;;;3.16;77.24
84944;BME280;75231;53.650;9.788;2024-03-08T08:40:35;102341.34;;;3.17;77.05
84944;BME280;75231;53.650;9.788;2024-03-08T08:43:02;102343.84;;;3.24;76.71
84944;BME280;75231;53.650;9.788;2024-03-08T08:45:30;102342.88;;;3.36;76.65
84944;BME280;75231;53.650;9.788;2024-03-08T08:47:55;102342.81;;;3.48;76.02
84944;BME280;75231;53.650;9.788;2024-03-08T08:50:21;102336.66;;;3.69;75.99
84944;BME280;75231;53.650;9.788;2024-03-08T08:52:51;102341.72;;;3.74;75.47
84944;BME280;75231;53.650;9.788;2024-03-08T08:55:17;102334.78;;;3.85;75.10
84944;BME280;75231;53.650;9.788;2024-03-08T08:57:46;102337.19;;;4.03;74.41
84944;BME280;75231;53.650;9.788;2024-03-08T09:00:12;102329.41;;;4.11;73.80
84944;BME280;75231;53.650;9.788;2024-03-08T09:02:40;102326.66;;;4.28;72.54
84944;BME280;75231;53.650;9.788;2024-03-08T09:05:06;102318.91;;;4.35;72.12
84944;BME280;75231;53.650;9.788;2024-03-08T09:07:33;102319.75;;;4.33;71.88
84944;BME280;75231;53.650;9.788;2024-03-08T09:10:01;102309.44;;;4.39;72.15
84944;BME280;75231;53.650;9.788;2024-03-08T09:12:26;102305.16;;;4.42;71.49
84944;BME280;75231;53.650;9.788;2024-03-08T09:14:52;102305.59;;;4.73;71.92
84944;BME280;75231;53.650;9.788;2024-03-08T09:17:20;102294.47;;;4.74;70.68
84944;BME280;75231;53.650;9.788;2024-03-08T09:19:49;102305.28;;;4.95;70.37
84944;BME280;75231;53.650;9.788;2024-03-08T09:22:15;102296.75;;;4.93;69.46
84944;BME280;75231;53.650;9.788;2024-03-08T09:24:43;102296.44;;;5.14;68.31
84944;BME280;75231;53.650;9.788;2024-03-08T09:27:09;102288.66;;;5.19;68.11
84944;BME280;75231;53.650;9.788;2024-03-08T09:29:35;102283.56;;;5.17;67.92
84944;BME280;75231;53.650;9.788;2024-03-08T09:32:00;102290.06;;;5.38;67.00
84944;BME280;75231;53.650;9.788;2024-03-08T09:34:26;102286.69;;;5.34;66.01
84944;BME280;75231;53.650;9.788;2024-03-08T09:36:51;102283.88;;;5.50;66.59
84944;BME280;75231;53.650;9.788;2024-03-08T09:39:17;102275.34;;;5.48;64.72
84944;BME280;75231;53.650;9.788;2024-03-08T09:41:44;102275.28;;;5.51;64.09
84944;BME280;75231;53.650;9.788;2024-03-08T09:44:10;102270.84;;;5.62;63.92
84944;BME280;75231;53.650;9.788;2024-03-08T09:46:35;102258.56;;;5.78;64.73
84944;BME280;75231;53.650;9.788;2024-03-08T09:49:01;102261.78;;;5.87;63.54
84944;BME280;75231;53.650;9.788;2024-03-08T09:51:33;102261.38;;;5.64;63.69
84944;BME280;75231;53.650;9.788;2024-03-08T09:54:00;102257.66;;;5.80;64.39
84944;BME280;75231;53.650;9.788;2024-03-08T09:56:26;102253.25;;;5.85;63.11
84944;BME280;75231;53.650;9.788;2024-03-08T09:58:53;102242.97;;;5.87;63.94
84944;BME280;75231;53.650;9.788;2024-03-08T10:01:36;102248.91;;;5.91;64.09
84944;BME280;75231;53.650;9.788;2024-03-08T10:04:04;102237.69;;;5.96;63.40
84944;BME280;75231;53.650;9.788;2024-03-08T10:06:29;102235.72;;;6.07;63.21
84944;BME280;75231;53.650;9.788;2024-03-08T10:08:56;102224.22;;;6.27;62.58
84944;BME280;75231;53.650;9.788;2024-03-08T10:11:21;102220.44;;;6.41;61.93
84944;BME280;75231;53.650;9.788;2024-03-08T10:13:50;102220.94;;;6.57;61.46
84944;BME280;75231;53.650;9.788;2024-03-08T10:16:16;102217.91;;;6.40;61.48
84944;BME280;75231;53.650;9.788;2024-03-08T10:18:47;102217.69;;;6.51;60.06
84944;BME280;75231;53.650;9.788;2024-03-08T10:21:12;102213.84;;;6.68;60.31
84944;BME280;75231;53.650;9.788;2024-03-08T10:23:39;102195.63;;;6.78;61.12
84944;BME280;75231;53.650;9.788;2024-03-08T10:26:17;102193.88;;;6.78;59.96
84944;BME280;75231;53.650;9.788;2024-03-08T10:28:45;102193.97;;;6.75;59.34
84944;BME280;75231;53.650;9.788;2024-03-08T10:31:13;102201.06;;;6.64;59.27
84944;BME280;75231;53.650;9.788;2024-03-08T10:33:40;102185.41;;;6.73;59.38
84944;BME280;75231;53.650;9.788;2024-03-08T10:36:08;102197.03;;;6.89;59.23
84944;BME280;75231;53.650;9.788;2024-03-08T10:38:36;102183.88;;;7.01;59.25
84944;BME280;75231;53.650;9.788;2024-03-08T10:41:03;102175.34;;;6.99;58.20
84944;BME280;75231;53.650;9.788;2024-03-08T10:43:33;102158.63;;;7.16;58.90
84944;BME280;75231;53.650;9.788;2024-03-08T10:48:52;102163.97;;;7.08;56.93
84944;BME280;75231;53.650;9.788;2024-03-08T10:51:21;102148.75;;;7.00;57.30
84944;BME280;75231;53.650;9.788;2024-03-08T10:53:46;102157.59;;;7.23;57.24
84944;BME280;75231;53.650;9.788;2024-03-08T10:56:13;102153.41;;;7.19;56.96
84944;BME280;75231;53.650;9.788;2024-03-08T10:58:40;102135.81;;;7.02;57.54
84944;BME280;75231;53.650;9.788;2024-03-08T11:01:12;102150.78;;;7.20;57.71
84944;BME280;75231;53.650;9.788;2024-03-08T11:03:44;102147.31;;;7.23;57.02
84944;BME280;75231;53.650;9.788;2024-03-08T11:06:13;102142.16;;;7.21;56.49
84944;BME280;75231;53.650;9.788;2024-03-08T11:08:40;102138.78;;;7.19;56.73
84944;BME280;75231;53.650;9.788;2024-03-08T11:11:05;102131.50;;;7.35;57.40
84944;BME280;75231;53.650;9.788;2024-03-08T11:13:40;102125.66;;;7.30;55.19
84944;BME280;75231;53.650;9.788;2024-03-08T11:16:12;102144.41;;;7.65;56.91
84944;BME280;75231;53.650;9.788;2024-03-08T11:21:36;102123.53;;;7.74;53.31
84944;BME280;75231;53.650;9.788;2024-03-08T11:24:14;102117.81;;;7.64;51.49
84944;BME280;75231;53.650;9.788;2024-03-08T11:26:42;102101.59;;;7.62;52.50
84944;BME280;75231;53.650;9.788;2024-03-08T11:31:51;102096.19;;;7.70;51.30
84944;BME280;75231;53.650;9.788;2024-03-08T11:34:16;102101.25;;;7.73;51.79
84944;BME280;75231;53.650;9.788;2024-03-08T11:36:48;102100.41;;;7.72;50.78
84944;BME280;75231;53.650;9.788;2024-03-08T11:39:13;102089.03;;;7.79;51.00
84944;BME280;75231;53.650;9.788;2024-03-08T11:41:40;102090.38;;;7.91;51.04
84944;BME280;75231;53.650;9.788;2024-03-08T11:44:07;102077.66;;;7.87;51.18
84944;BME280;75231;53.650;9.788;2024-03-08T11:46:34;102079.97;;;7.96;50.10
84944;BME280;75231;53.650;9.788;2024-03-08T11:48:59;102079.13;;;7.95;49.90
84944;BME280;75231;53.650;9.788;2024-03-08T11:51:26;102076.06;;;8.10;51.70
84944;BME280;75231;53.650;9.788;2024-03-08T11:53:59;102056.41;;;8.06;52.37
84944;BME280;75231;53.650;9.788;2024-03-08T11:56:24;102064.84;;;8.11;50.12
84944;BME280;75231;53.650;9.788;2024-03-08T11:58:54;102064.84;;;8.11;48.47
84944;BME280;75231;53.650;9.788;2024-03-08T12:01:22;102073.28;;;8.17;49.89
84944;BME280;75231;53.650;9.788;2024-03-08T12:03:53;102065.66;;;8.13;49.19
84944;BME280;75231;53.650;9.788;2024-03-08T12:06:18;102054.31;;;8.19;51.65
84944;BME280;75231;53.650;9.788;2024-03-08T12:08:46;102042.88;;;8.00;50.19
84944;BME280;75231;53.650;9.788;2024-03-08T12:11:14;102050.97;;;8.16;50.19
84944;BME280;75231;53.650;9.788;2024-03-08T12:13:42;102041.84;;;8.32;50.81
84944;BME280;75231;53.650;9.788;2024-03-08T12:16:12;102006.66;;;8.04;50.93
84944;BME280;75231;53.650;9.788;2024-03-08T12:18:38;102027.63;;;8.20;50.79
84944;BME280;75231;53.650;9.788;2024-03-08T12:21:08;102003.91;;;8.10;49.88
84944;BME280;75231;53.650;9.788;2024-03-08T12:23:41;102013.66;;;8.26;50.62
84944;BME280;75231;53.650;9.788;2024-03-08T12:26:14;102003.47;;;8.23;49.63
84944;BME280;75231;53.650;9.788;2024-03-08T12:28:44;102022.47;;;8.47;50.84
84944;BME280;75231;53.650;9.788;2024-03-08T12:31:12;101998.75;;;8.37;50.89
84944;BME280;75231;53.650;9.788;2024-03-08T12:33:50;102003.69;;;8.43;51.13
84944;BME280;75231;53.650;9.788;2024-03-08T12:36:16;101994.22;;;8.44;50.03
84944;BME280;75231;53.650;9.788;2024-03-08T12:38:46;102007.53;;;8.30;50.62
84944;BME280;75231;53.650;9.788;2024-03-08T12:41:14;102006.84;;;8.25;51.26
84944;BME280;75231;53.650;9.788;2024-03-08T12:43:40;101999.66;;;8.08;51.62
84944;BME280;75231;53.650;9.788;2024-03-08T12:46:05;101990.69;;;8.20;51.89
84944;BME280;75231;53.650;9.788;2024-03-08T12:48:37;101982.06;;;8.21;50.26
84944;BME280;75231;53.650;9.788;2024-03-08T12:51:08;101969.91;;;8.51;50.81
84944;BME280;75231;53.650;9.788;2024-03-08T12:53:34;101965.06;;;8.66;48.95
84944;BME280;75231;53.650;9.788;2024-03-08T12:55:59;101970.81;;;8.73;49.18
84944;BME280;75231;53.650;9.788;2024-03-08T12:58:25;101967.06;;;8.58;48.15
84944;BME280;75231;53.650;9.788;2024-03-08T13:00:51;101963.66;;;8.56;48.81
84944;BME280;75231;53.650;9.788;2024-03-08T13:03:16;101954.72;;;8.66;48.72
84944;BME280;75231;53.650;9.788;2024-03-08T13:05:42;101951.69;;;8.79;48.95